sensor_id;sensor_type;location;lat;lon;timestamp;P1;durP1;ratioP1;P2;durP2;ratioP2
59145;SDS011;44928;53.074;6.646;2024-01-07T00:01:35;12.27;;;6.53;;
59145;SDS011;44928;53.074;6.646;2024-01-07T00:04:01;11.93;;;7.32;;
59145;SDS011;44928;53.074;6.646;2024-01-07T00:06:27;12.52;;;6.70;;
59145;SDS011;44928;53.074;6.646;2024-01-07T00:08:53;13.05;;;7.35;;
59145;SDS011;44928;53.074;6.646;2024-01-07T00:11:19;13.25;;;6.88;;
59145;SDS011;44928;53.074;6.646;2024-01-07T00:13:45;13.02;;;6.63;;
59145;SDS011;44928;53.074;6.646;2024-01-07T00:16:11;12.85;;;7.10;;
59145;SDS011;44928;53.074;6.646;2024-01-07T00:18:36;11.90;;;6.65;;
59145;SDS011;44928;53.074;6.646;2024-01-07T00:21:02;13.85;;;7.20;;
59145;SDS011;44928;53.074;6.646;2024-01-07T00:23:28;12.27;;;6.60;;
59145;SDS011;44928;53.074;6.646;2024-01-07T00:25:54;12.07;;;6.57;;
59145;SDS011;44928;53.074;6.646;2024-01-07T00:28:20;14.13;;;7.13;;
59145;SDS011;44928;53.074;6.646;2024-01-07T00:30:46;12.65;;;6.82;;
59145;SDS011;44928;53.074;6.646;2024-01-07T00:33:11;12.77;;;6.93;;
59145;SDS011;44928;53.074;6.646;2024-01-07T00:35:37;12.60;;;6.85;;
59145;SDS011;44928;53.074;6.646;2024-01-07T00:38:03;12.82;;;6.65;;
59145;SDS011;44928;53.074;6.646;2024-01-07T00:40:29;13.68;;;6.82;;
59145;SDS011;44928;53.074;6.646;2024-01-07T00:42:55;11.82;;;6.20;;
59145;SDS011;44928;53.074;6.646;2024-01-07T00:45:20;12.25;;;6.60;;
59145;SDS011;44928;53.074;6.646;2024-01-07T00:47:47;11.52;;;7.10;;
59145;SDS011;44928;53.074;6.646;2024-01-07T00:50:12;10.40;;;5.80;;
59145;SDS011;44928;53.074;6.646;2024-01-07T00:52:38;11.25;;;5.72;;
59145;SDS011;44928;53.074;6.646;2024-01-07T00:55:06;14.15;;;6.35;;
59145;SDS011;44928;53.074;6.646;2024-01-07T00:57:32;11.07;;;6.38;;
59145;SDS011;44928;53.074;6.646;2024-01-07T00:59:58;12.27;;;6.43;;
59145;SDS011;44928;53.074;6.646;2024-01-07T01:02:25;11.25;;;6.00;;
59145;SDS011;44928;53.074;6.646;2024-01-07T01:04:50;11.95;;;6.20;;
59145;SDS011;44928;53.074;6.646;2024-01-07T01:07:16;10.30;;;6.00;;
59145;SDS011;44928;53.074;6.646;2024-01-07T01:09:42;12.90;;;6.47;;
59145;SDS011;44928;53.074;6.646;2024-01-07T01:12:08;12.00;;;5.63;;
59145;SDS011;44928;53.074;6.646;2024-01-07T01:14:34;12.75;;;5.75;;
59145;SDS011;44928;53.074;6.646;2024-01-07T01:16:59;11.05;;;5.95;;
59145;SDS011;44928;53.074;6.646;2024-01-07T01:19:25;11.75;;;5.75;;
59145;SDS011;44928;53.074;6.646;2024-01-07T01:21:51;13.65;;;7.30;;
59145;SDS011;44928;53.074;6.646;2024-01-07T01:24:17;13.02;;;6.15;;
59145;SDS011;44928;53.074;6.646;2024-01-07T01:26:42;15.88;;;6.95;;
59145;SDS011;44928;53.074;6.646;2024-01-07T01:29:08;11.27;;;6.05;;
59145;SDS011;44928;53.074;6.646;2024-01-07T01:31:34;12.77;;;6.72;;
59145;SDS011;44928;53.074;6.646;2024-01-07T01:34:00;12.55;;;6.60;;
59145;SDS011;44928;53.074;6.646;2024-01-07T01:36:26;13.63;;;6.18;;
59145;SDS011;44928;53.074;6.646;2024-01-07T01:38:52;11.55;;;6.07;;
59145;SDS011;44928;53.074;6.646;2024-01-07T01:41:17;12.68;;;5.78;;
59145;SDS011;44928;53.074;6.646;2024-01-07T01:43:43;10.48;;;5.50;;
59145;SDS011;44928;53.074;6.646;2024-01-07T01:46:09;12.20;;;5.57;;
59145;SDS011;44928;53.074;6.646;2024-01-07T01:48:35;11.80;;;5.85;;
59145;SDS011;44928;53.074;6.646;2024-01-07T01:51:02;11.00;;;5.78;;
59145;SDS011;44928;53.074;6.646;2024-01-07T01:53:28;11.15;;;6.13;;
59145;SDS011;44928;53.074;6.646;2024-01-07T01:55:57;10.07;;;5.15;;
59145;SDS011;44928;53.074;6.646;2024-01-07T01:58:24;10.95;;;5.55;;
59145;SDS011;44928;53.074;6.646;2024-01-07T02:00:51;10.68;;;5.57;;
59145;SDS011;44928;53.074;6.646;2024-01-07T02:03:17;11.90;;;5.68;;
59145;SDS011;44928;53.074;6.646;2024-01-07T02:05:43;10.00;;;5.07;;
59145;SDS011;44928;53.074;6.646;2024-01-07T02:08:09;14.23;;;6.25;;
59145;SDS011;44928;53.074;6.646;2024-01-07T02:10:36;11.27;;;5.90;;
59145;SDS011;44928;53.074;6.646;2024-01-07T02:13:05;12.93;;;6.18;;
59145;SDS011;44928;53.074;6.646;2024-01-07T02:15:31;11.20;;;5.40;;
59145;SDS011;44928;53.074;6.646;2024-01-07T02:17:57;12.00;;;5.55;;
59145;SDS011;44928;53.074;6.646;2024-01-07T02:20:23;9.52;;;5.18;;
59145;SDS011;44928;53.074;6.646;2024-01-07T02:22:49;10.15;;;4.97;;
59145;SDS011;44928;53.074;6.646;2024-01-07T02:25:15;10.95;;;4.82;;
59145;SDS011;44928;53.074;6.646;2024-01-07T02:27:40;8.93;;;4.57;;
59145;SDS011;44928;53.074;6.646;2024-01-07T02:30:06;10.48;;;4.15;;
59145;SDS011;44928;53.074;6.646;2024-01-07T02:32:33;11.43;;;4.22;;
59145;SDS011;44928;53.074;6.646;2024-01-07T02:34:59;9.10;;;4.05;;
59145;SDS011;44928;53.074;6.646;2024-01-07T02:37:26;9.77;;;4.50;;
59145;SDS011;44928;53.074;6.646;2024-01-07T02:39:51;9.40;;;4.20;;
59145;SDS011;44928;53.074;6.646;2024-01-07T02:42:17;11.23;;;4.55;;
59145;SDS011;44928;53.074;6.646;2024-01-07T02:44:43;10.82;;;4.55;;
59145;SDS011;44928;53.074;6.646;2024-01-07T02:47:09;9.27;;;3.90;;
59145;SDS011;44928;53.074;6.646;2024-01-07T02:49:35;9.00;;;3.88;;
59145;SDS011;44928;53.074;6.646;2024-01-07T02:52:01;10.07;;;4.10;;
59145;SDS011;44928;53.074;6.646;2024-01-07T02:54:26;8.60;;;3.60;;
59145;SDS011;44928;53.074;6.646;2024-01-07T02:56:52;8.90;;;3.67;;
59145;SDS011;44928;53.074;6.646;2024-01-07T02:59:18;9.95;;;3.78;;
59145;SDS011;44928;53.074;6.646;2024-01-07T03:01:44;9.70;;;3.90;;
59145;SDS011;44928;53.074;6.646;2024-01-07T03:04:10;9.07;;;3.50;;
59145;SDS011;44928;53.074;6.646;2024-01-07T03:06:39;11.02;;;3.60;;
59145;SDS011;44928;53.074;6.646;2024-01-07T03:09:05;8.15;;;3.40;;
59145;SDS011;44928;53.074;6.646;2024-01-07T03:11:31;7.88;;;3.30;;
59145;SDS011;44928;53.074;6.646;2024-01-07T03:13:57;8.18;;;3.67;;
59145;SDS011;44928;53.074;6.646;2024-01-07T03:16:23;9.38;;;3.65;;
59145;SDS011;44928;53.074;6.646;2024-01-07T03:18:50;9.23;;;3.60;;
59145;SDS011;44928;53.074;6.646;2024-01-07T03:21:16;9.13;;;3.97;;
59145;SDS011;44928;53.074;6.646;2024-01-07T03:23:43;8.27;;;3.53;;
59145;SDS011;44928;53.074;6.646;2024-01-07T03:26:09;9.27;;;3.42;;
59145;SDS011;44928;53.074;6.646;2024-01-07T03:28:35;8.95;;;3.97;;
59145;SDS011;44928;53.074;6.646;2024-01-07T03:31:08;8.77;;;3.20;;
59145;SDS011;44928;53.074;6.646;2024-01-07T03:33:35;8.85;;;3.28;;
59145;SDS011;44928;53.074;6.646;2024-01-07T03:36:11;8.02;;;3.15;;
59145;SDS011;44928;53.074;6.646;2024-01-07T03:38:38;9.07;;;3.58;;
59145;SDS011;44928;53.074;6.646;2024-01-07T03:41:05;8.60;;;3.45;;
59145;SDS011;44928;53.074;6.646;2024-01-07T03:43:31;9.00;;;3.53;;
59145;SDS011;44928;53.074;6.646;2024-01-07T03:45:57;8.65;;;3.42;;
59145;SDS011;44928;53.074;6.646;2024-01-07T03:48:23;8.45;;;3.35;;
59145;SDS011;44928;53.074;6.646;2024-01-07T03:50:49;8.20;;;3.17;;
59145;SDS011;44928;53.074;6.646;2024-01-07T03:53:15;7.78;;;3.22;;
59145;SDS011;44928;53.074;6.646;2024-01-07T03:55:41;7.57;;;3.13;;
59145;SDS011;44928;53.074;6.646;2024-01-07T03:58:07;6.28;;;2.80;;
59145;SDS011;44928;53.074;6.646;2024-01-07T04:00:33;8.70;;;3.30;;
59145;SDS011;44928;53.074;6.646;2024-01-07T04:03:00;9.13;;;2.85;;
59145;SDS011;44928;53.074;6.646;2024-01-07T04:05:26;7.95;;;2.72;;
59145;SDS011;44928;53.074;6.646;2024-01-07T04:07:52;7.85;;;2.80;;
59145;SDS011;44928;53.074;6.646;2024-01-07T04:10:18;7.28;;;2.75;;
59145;SDS011;44928;53.074;6.646;2024-01-07T04:12:44;7.05;;;2.65;;
59145;SDS011;44928;53.074;6.646;2024-01-07T04:15:13;8.98;;;2.80;;
59145;SDS011;44928;53.074;6.646;2024-01-07T04:17:39;8.27;;;2.88;;
59145;SDS011;44928;53.074;6.646;2024-01-07T04:20:05;7.75;;;2.60;;
59145;SDS011;44928;53.074;6.646;2024-01-07T04:22:31;7.82;;;2.83;;
59145;SDS011;44928;53.074;6.646;2024-01-07T04:24:57;7.93;;;3.28;;
59145;SDS011;44928;53.074;6.646;2024-01-07T04:27:23;8.15;;;2.90;;
59145;SDS011;44928;53.074;6.646;2024-01-07T04:29:50;7.47;;;2.53;;
59145;SDS011;44928;53.074;6.646;2024-01-07T04:32:16;7.38;;;2.30;;
59145;SDS011;44928;53.074;6.646;2024-01-07T04:34:42;6.38;;;2.38;;
59145;SDS011;44928;53.074;6.646;2024-01-07T04:37:08;6.57;;;2.58;;
59145;SDS011;44928;53.074;6.646;2024-01-07T04:39:34;7.45;;;2.60;;
59145;SDS011;44928;53.074;6.646;2024-01-07T04:41:59;8.02;;;2.30;;
59145;SDS011;44928;53.074;6.646;2024-01-07T04:44:25;7.82;;;2.22;;
59145;SDS011;44928;53.074;6.646;2024-01-07T04:46:51;5.93;;;2.10;;
59145;SDS011;44928;53.074;6.646;2024-01-07T04:49:17;6.70;;;2.53;;
59145;SDS011;44928;53.074;6.646;2024-01-07T04:51:42;7.35;;;2.38;;
59145;SDS011;44928;53.074;6.646;2024-01-07T04:54:08;6.72;;;1.92;;
59145;SDS011;44928;53.074;6.646;2024-01-07T04:56:34;6.65;;;2.10;;
59145;SDS011;44928;53.074;6.646;2024-01-07T04:59:00;6.18;;;2.00;;
59145;SDS011;44928;53.074;6.646;2024-01-07T05:01:25;7.32;;;2.33;;
59145;SDS011;44928;53.074;6.646;2024-01-07T05:03:51;6.57;;;1.92;;
59145;SDS011;44928;53.074;6.646;2024-01-07T05:06:17;7.47;;;2.40;;
59145;SDS011;44928;53.074;6.646;2024-01-07T05:08:43;5.65;;;1.80;;
59145;SDS011;44928;53.074;6.646;2024-01-07T05:11:09;6.45;;;2.00;;
59145;SDS011;44928;53.074;6.646;2024-01-07T05:13:35;4.97;;;1.80;;
59145;SDS011;44928;53.074;6.646;2024-01-07T05:16:01;6.65;;;2.15;;
59145;SDS011;44928;53.074;6.646;2024-01-07T05:18:28;8.45;;;2.30;;
59145;SDS011;44928;53.074;6.646;2024-01-07T05:20:53;4.97;;;1.58;;
59145;SDS011;44928;53.074;6.646;2024-01-07T05:23:19;5.63;;;1.67;;
59145;SDS011;44928;53.074;6.646;2024-01-07T05:25:45;6.22;;;2.10;;
59145;SDS011;44928;53.074;6.646;2024-01-07T05:28:12;5.30;;;1.58;;
59145;SDS011;44928;53.074;6.646;2024-01-07T05:30:38;4.97;;;1.40;;
59145;SDS011;44928;53.074;6.646;2024-01-07T05:33:05;4.90;;;1.38;;
59145;SDS011;44928;53.074;6.646;2024-01-07T05:35:31;5.38;;;1.70;;
59145;SDS011;44928;53.074;6.646;2024-01-07T05:37:57;5.15;;;1.98;;
59145;SDS011;44928;53.074;6.646;2024-01-07T05:40:23;4.90;;;1.60;;
59145;SDS011;44928;53.074;6.646;2024-01-07T05:42:49;5.53;;;1.58;;
59145;SDS011;44928;53.074;6.646;2024-01-07T05:45:14;5.05;;;1.50;;
59145;SDS011;44928;53.074;6.646;2024-01-07T05:47:40;4.45;;;1.40;;
59145;SDS011;44928;53.074;6.646;2024-01-07T05:50:07;6.38;;;1.70;;
59145;SDS011;44928;53.074;6.646;2024-01-07T05:52:33;4.55;;;1.40;;
59145;SDS011;44928;53.074;6.646;2024-01-07T05:54:59;7.45;;;1.63;;
59145;SDS011;44928;53.074;6.646;2024-01-07T05:57:25;5.38;;;1.48;;
59145;SDS011;44928;53.074;6.646;2024-01-07T05:59:51;3.78;;;1.25;;
59145;SDS011;44928;53.074;6.646;2024-01-07T06:02:17;4.75;;;1.55;;
59145;SDS011;44928;53.074;6.646;2024-01-07T06:04:43;6.97;;;1.85;;
59145;SDS011;44928;53.074;6.646;2024-01-07T06:07:09;4.80;;;1.40;;
59145;SDS011;44928;53.074;6.646;2024-01-07T06:09:35;4.75;;;1.60;;
59145;SDS011;44928;53.074;6.646;2024-01-07T06:12:01;5.97;;;1.70;;
59145;SDS011;44928;53.074;6.646;2024-01-07T06:14:27;5.40;;;1.50;;
59145;SDS011;44928;53.074;6.646;2024-01-07T06:16:52;5.07;;;1.35;;
59145;SDS011;44928;53.074;6.646;2024-01-07T06:19:18;5.22;;;1.50;;
59145;SDS011;44928;53.074;6.646;2024-01-07T06:21:45;3.67;;;1.27;;
59145;SDS011;44928;53.074;6.646;2024-01-07T06:24:11;5.25;;;1.30;;
59145;SDS011;44928;53.074;6.646;2024-01-07T06:26:37;5.07;;;1.67;;
59145;SDS011;44928;53.074;6.646;2024-01-07T06:29:02;5.53;;;1.67;;
59145;SDS011;44928;53.074;6.646;2024-01-07T06:31:28;4.00;;;1.73;;
59145;SDS011;44928;53.074;6.646;2024-01-07T06:33:54;5.40;;;1.45;;
59145;SDS011;44928;53.074;6.646;2024-01-07T06:36:25;5.00;;;1.58;;
59145;SDS011;44928;53.074;6.646;2024-01-07T06:38:51;3.58;;;1.42;;
59145;SDS011;44928;53.074;6.646;2024-01-07T06:41:16;4.72;;;1.45;;
59145;SDS011;44928;53.074;6.646;2024-01-07T06:43:42;4.72;;;1.50;;
59145;SDS011;44928;53.074;6.646;2024-01-07T06:46:08;4.35;;;1.48;;
59145;SDS011;44928;53.074;6.646;2024-01-07T06:48:35;5.32;;;1.48;;
59145;SDS011;44928;53.074;6.646;2024-01-07T06:51:00;4.00;;;1.30;;
59145;SDS011;44928;53.074;6.646;2024-01-07T06:53:26;6.78;;;1.60;;
59145;SDS011;44928;53.074;6.646;2024-01-07T06:55:52;5.85;;;1.55;;
59145;SDS011;44928;53.074;6.646;2024-01-07T06:58:18;7.80;;;1.60;;
59145;SDS011;44928;53.074;6.646;2024-01-07T07:00:44;4.63;;;1.40;;
59145;SDS011;44928;53.074;6.646;2024-01-07T07:03:10;5.68;;;1.30;;
59145;SDS011;44928;53.074;6.646;2024-01-07T07:05:36;6.50;;;1.30;;
59145;SDS011;44928;53.074;6.646;2024-01-07T07:08:02;5.10;;;1.50;;
59145;SDS011;44928;53.074;6.646;2024-01-07T07:10:28;4.72;;;1.48;;
59145;SDS011;44928;53.074;6.646;2024-01-07T07:12:54;5.15;;;2.05;;
59145;SDS011;44928;53.074;6.646;2024-01-07T07:15:19;7.10;;;1.40;;
59145;SDS011;44928;53.074;6.646;2024-01-07T07:17:45;5.05;;;1.40;;
59145;SDS011;44928;53.074;6.646;2024-01-07T07:20:11;4.70;;;1.65;;
59145;SDS011;44928;53.074;6.646;2024-01-07T07:22:37;4.65;;;1.40;;
59145;SDS011;44928;53.074;6.646;2024-01-07T07:25:03;4.57;;;1.50;;
59145;SDS011;44928;53.074;6.646;2024-01-07T07:27:30;7.10;;;1.58;;
59145;SDS011;44928;53.074;6.646;2024-01-07T07:29:56;5.65;;;1.50;;
59145;SDS011;44928;53.074;6.646;2024-01-07T07:32:22;4.13;;;1.45;;
59145;SDS011;44928;53.074;6.646;2024-01-07T07:34:48;4.88;;;1.50;;
59145;SDS011;44928;53.074;6.646;2024-01-07T07:37:13;5.90;;;1.30;;
59145;SDS011;44928;53.074;6.646;2024-01-07T07:39:39;5.70;;;1.40;;
59145;SDS011;44928;53.074;6.646;2024-01-07T07:42:05;4.30;;;1.30;;
59145;SDS011;44928;53.074;6.646;2024-01-07T07:44:31;5.85;;;1.60;;
59145;SDS011;44928;53.074;6.646;2024-01-07T07:46:57;5.15;;;2.05;;
59145;SDS011;44928;53.074;6.646;2024-01-07T07:49:22;4.45;;;1.50;;
59145;SDS011;44928;53.074;6.646;2024-01-07T07:51:48;5.93;;;1.40;;
59145;SDS011;44928;53.074;6.646;2024-01-07T07:54:14;3.85;;;1.20;;
59145;SDS011;44928;53.074;6.646;2024-01-07T07:56:40;4.35;;;1.33;;
59145;SDS011;44928;53.074;6.646;2024-01-07T07:59:05;3.97;;;1.20;;
59145;SDS011;44928;53.074;6.646;2024-01-07T08:01:34;4.35;;;1.20;;
59145;SDS011;44928;53.074;6.646;2024-01-07T08:04:00;4.78;;;1.30;;
59145;SDS011;44928;53.074;6.646;2024-01-07T08:06:27;4.05;;;1.30;;
59145;SDS011;44928;53.074;6.646;2024-01-07T08:08:54;4.90;;;1.50;;
59145;SDS011;44928;53.074;6.646;2024-01-07T08:11:20;4.82;;;1.20;;
59145;SDS011;44928;53.074;6.646;2024-01-07T08:13:45;4.78;;;1.40;;
59145;SDS011;44928;53.074;6.646;2024-01-07T08:16:12;5.43;;;1.58;;
59145;SDS011;44928;53.074;6.646;2024-01-07T08:18:38;5.00;;;1.20;;
59145;SDS011;44928;53.074;6.646;2024-01-07T08:21:05;3.70;;;1.20;;
59145;SDS011;44928;53.074;6.646;2024-01-07T08:23:31;3.70;;;1.38;;
59145;SDS011;44928;53.074;6.646;2024-01-07T08:25:57;4.38;;;1.25;;
59145;SDS011;44928;53.074;6.646;2024-01-07T08:28:23;4.05;;;1.67;;
59145;SDS011;44928;53.074;6.646;2024-01-07T08:30:49;4.78;;;1.40;;
59145;SDS011;44928;53.074;6.646;2024-01-07T08:33:16;4.05;;;1.15;;
59145;SDS011;44928;53.074;6.646;2024-01-07T08:35:43;6.03;;;1.50;;
59145;SDS011;44928;53.074;6.646;2024-01-07T08:38:09;5.25;;;1.60;;
59145;SDS011;44928;53.074;6.646;2024-01-07T08:40:34;6.40;;;1.60;;
59145;SDS011;44928;53.074;6.646;2024-01-07T08:43:01;5.78;;;1.23;;
59145;SDS011;44928;53.074;6.646;2024-01-07T08:45:27;4.07;;;1.23;;
59145;SDS011;44928;53.074;6.646;2024-01-07T08:47:54;5.80;;;1.50;;
59145;SDS011;44928;53.074;6.646;2024-01-07T08:50:19;6.25;;;1.70;;
59145;SDS011;44928;53.074;6.646;2024-01-07T08:52:45;6.82;;;1.48;;
59145;SDS011;44928;53.074;6.646;2024-01-07T08:55:12;4.97;;;1.40;;
59145;SDS011;44928;53.074;6.646;2024-01-07T08:57:38;9.38;;;1.58;;
59145;SDS011;44928;53.074;6.646;2024-01-07T09:00:04;4.45;;;1.40;;
59145;SDS011;44928;53.074;6.646;2024-01-07T09:02:32;3.53;;;1.42;;
59145;SDS011;44928;53.074;6.646;2024-01-07T09:04:58;5.07;;;1.55;;
59145;SDS011;44928;53.074;6.646;2024-01-07T09:07:24;5.07;;;1.50;;
59145;SDS011;44928;53.074;6.646;2024-01-07T09:09:50;5.68;;;1.35;;
59145;SDS011;44928;53.074;6.646;2024-01-07T09:12:16;4.78;;;1.40;;
59145;SDS011;44928;53.074;6.646;2024-01-07T09:14:42;4.22;;;1.30;;
59145;SDS011;44928;53.074;6.646;2024-01-07T09:17:08;4.82;;;1.40;;
59145;SDS011;44928;53.074;6.646;2024-01-07T09:19:34;5.78;;;1.60;;
59145;SDS011;44928;53.074;6.646;2024-01-07T09:22:00;4.95;;;1.35;;
59145;SDS011;44928;53.074;6.646;2024-01-07T09:24:25;5.28;;;1.50;;
59145;SDS011;44928;53.074;6.646;2024-01-07T09:26:51;6.60;;;1.63;;
59145;SDS011;44928;53.074;6.646;2024-01-07T09:29:17;6.18;;;1.58;;
59145;SDS011;44928;53.074;6.646;2024-01-07T09:31:43;5.60;;;1.48;;
59145;SDS011;44928;53.074;6.646;2024-01-07T09:34:09;5.30;;;1.70;;
59145;SDS011;44928;53.074;6.646;2024-01-07T09:36:34;4.18;;;1.38;;
59145;SDS011;44928;53.074;6.646;2024-01-07T09:39:02;6.28;;;1.80;;
59145;SDS011;44928;53.074;6.646;2024-01-07T09:41:31;4.45;;;1.40;;
59145;SDS011;44928;53.074;6.646;2024-01-07T09:43:57;4.15;;;1.50;;
59145;SDS011;44928;53.074;6.646;2024-01-07T09:46:24;5.57;;;1.92;;
59145;SDS011;44928;53.074;6.646;2024-01-07T09:48:51;4.80;;;1.45;;
59145;SDS011;44928;53.074;6.646;2024-01-07T09:51:17;5.60;;;1.42;;
59145;SDS011;44928;53.074;6.646;2024-01-07T09:53:48;5.25;;;1.52;;
59145;SDS011;44928;53.074;6.646;2024-01-07T09:58:49;2.85;;;1.13;;
59145;SDS011;44928;53.074;6.646;2024-01-07T10:01:15;4.13;;;1.15;;
59145;SDS011;44928;53.074;6.646;2024-01-07T10:03:45;4.93;;;1.33;;
59145;SDS011;44928;53.074;6.646;2024-01-07T10:06:11;4.75;;;1.83;;
59145;SDS011;44928;53.074;6.646;2024-01-07T10:08:38;3.65;;;1.20;;
59145;SDS011;44928;53.074;6.646;2024-01-07T10:11:04;4.47;;;1.30;;
59145;SDS011;44928;53.074;6.646;2024-01-07T10:13:30;5.85;;;1.67;;
59145;SDS011;44928;53.074;6.646;2024-01-07T10:15:56;3.55;;;1.33;;
59145;SDS011;44928;53.074;6.646;2024-01-07T10:18:22;3.88;;;1.05;;
59145;SDS011;44928;53.074;6.646;2024-01-07T10:20:48;6.47;;;1.40;;
59145;SDS011;44928;53.074;6.646;2024-01-07T10:23:18;5.13;;;1.50;;
59145;SDS011;44928;53.074;6.646;2024-01-07T10:28:10;3.17;;;1.10;;
59145;SDS011;44928;53.074;6.646;2024-01-07T10:30:39;4.70;;;1.27;;
59145;SDS011;44928;53.074;6.646;2024-01-07T10:33:05;5.72;;;1.60;;
59145;SDS011;44928;53.074;6.646;2024-01-07T10:35:33;5.10;;;1.40;;
59145;SDS011;44928;53.074;6.646;2024-01-07T10:38:01;6.57;;;1.63;;
59145;SDS011;44928;53.074;6.646;2024-01-07T10:40:27;4.60;;;1.55;;
59145;SDS011;44928;53.074;6.646;2024-01-07T10:42:56;6.40;;;1.73;;
59145;SDS011;44928;53.074;6.646;2024-01-07T10:45:23;6.35;;;1.70;;
59145;SDS011;44928;53.074;6.646;2024-01-07T10:47:49;3.75;;;1.48;;
59145;SDS011;44928;53.074;6.646;2024-01-07T10:50:16;5.63;;;1.45;;
59145;SDS011;44928;53.074;6.646;2024-01-07T10:52:43;4.70;;;1.33;;
59145;SDS011;44928;53.074;6.646;2024-01-07T10:55:15;3.70;;;1.60;;
59145;SDS011;44928;53.074;6.646;2024-01-07T10:57:44;5.70;;;1.45;;
59145;SDS011;44928;53.074;6.646;2024-01-07T11:00:12;4.53;;;1.48;;
59145;SDS011;44928;53.074;6.646;2024-01-07T11:05:45;3.67;;;1.52;;
59145;SDS011;44928;53.074;6.646;2024-01-07T11:10:57;3.17;;;1.30;;
59145;SDS011;44928;53.074;6.646;2024-01-07T11:13:35;6.85;;;2.75;;
59145;SDS011;44928;53.074;6.646;2024-01-07T11:16:05;7.75;;;2.67;;
59145;SDS011;44928;53.074;6.646;2024-01-07T11:18:46;5.05;;;1.77;;
59145;SDS011;44928;53.074;6.646;2024-01-07T11:21:22;5.43;;;1.80;;
59145;SDS011;44928;53.074;6.646;2024-01-07T11:23:50;7.85;;;4.00;;
59145;SDS011;44928;53.074;6.646;2024-01-07T11:26:18;6.25;;;1.75;;
59145;SDS011;44928;53.074;6.646;2024-01-07T11:31:18;5.03;;;1.55;;
59145;SDS011;44928;53.074;6.646;2024-01-07T11:33:46;4.63;;;1.52;;
59145;SDS011;44928;53.074;6.646;2024-01-07T11:36:13;7.22;;;1.55;;
59145;SDS011;44928;53.074;6.646;2024-01-07T11:38:43;4.63;;;1.50;;
59145;SDS011;44928;53.074;6.646;2024-01-07T11:41:14;4.68;;;1.75;;
59145;SDS011;44928;53.074;6.646;2024-01-07T11:43:58;6.28;;;2.70;;
59145;SDS011;44928;53.074;6.646;2024-01-07T11:46:25;5.35;;;1.98;;
59145;SDS011;44928;53.074;6.646;2024-01-07T11:48:56;6.65;;;2.00;;
59145;SDS011;44928;53.074;6.646;2024-01-07T11:51:29;8.50;;;2.10;;
59145;SDS011;44928;53.074;6.646;2024-01-07T11:53:56;9.05;;;2.28;;
59145;SDS011;44928;53.074;6.646;2024-01-07T11:56:26;5.95;;;2.40;;
59145;SDS011;44928;53.074;6.646;2024-01-07T11:58:53;7.45;;;2.28;;
59145;SDS011;44928;53.074;6.646;2024-01-07T12:01:19;7.55;;;2.72;;
59145;SDS011;44928;53.074;6.646;2024-01-07T12:03:45;8.70;;;2.90;;
59145;SDS011;44928;53.074;6.646;2024-01-07T12:06:11;7.90;;;2.67;;
59145;SDS011;44928;53.074;6.646;2024-01-07T12:08:41;6.70;;;2.70;;
59145;SDS011;44928;53.074;6.646;2024-01-07T12:11:08;6.47;;;2.40;;
59145;SDS011;44928;53.074;6.646;2024-01-07T12:13:36;8.40;;;3.00;;
59145;SDS011;44928;53.074;6.646;2024-01-07T12:16:03;8.38;;;2.53;;
59145;SDS011;44928;53.074;6.646;2024-01-07T12:18:33;7.65;;;2.85;;
59145;SDS011;44928;53.074;6.646;2024-01-07T12:21:01;9.65;;;3.33;;
59145;SDS011;44928;53.074;6.646;2024-01-07T12:23:27;8.35;;;2.47;;
59145;SDS011;44928;53.074;6.646;2024-01-07T12:25:53;9.95;;;4.70;;
59145;SDS011;44928;53.074;6.646;2024-01-07T12:28:21;9.60;;;4.30;;
59145;SDS011;44928;53.074;6.646;2024-01-07T12:30:47;7.40;;;3.30;;
59145;SDS011;44928;53.074;6.646;2024-01-07T12:33:18;7.50;;;2.90;;
59145;SDS011;44928;53.074;6.646;2024-01-07T12:35:46;7.95;;;2.60;;
59145;SDS011;44928;53.074;6.646;2024-01-07T12:38:12;8.88;;;2.80;;
59145;SDS011;44928;53.074;6.646;2024-01-07T12:40:38;8.85;;;2.70;;
59145;SDS011;44928;53.074;6.646;2024-01-07T12:43:04;6.43;;;2.33;;
59145;SDS011;44928;53.074;6.646;2024-01-07T12:45:32;7.28;;;2.55;;
59145;SDS011;44928;53.074;6.646;2024-01-07T12:47:58;7.82;;;2.40;;
59145;SDS011;44928;53.074;6.646;2024-01-07T12:50:27;7.35;;;2.50;;
59145;SDS011;44928;53.074;6.646;2024-01-07T12:52:55;6.13;;;2.40;;
59145;SDS011;44928;53.074;6.646;2024-01-07T12:55:22;8.38;;;2.50;;
59145;SDS011;44928;53.074;6.646;2024-01-07T12:57:47;7.57;;;2.80;;
59145;SDS011;44928;53.074;6.646;2024-01-07T13:00:14;7.55;;;2.50;;
59145;SDS011;44928;53.074;6.646;2024-01-07T13:02:41;7.38;;;2.50;;
59145;SDS011;44928;53.074;6.646;2024-01-07T13:05:07;9.07;;;3.45;;
59145;SDS011;44928;53.074;6.646;2024-01-07T13:07:35;9.32;;;3.75;;
59145;SDS011;44928;53.074;6.646;2024-01-07T13:10:00;7.93;;;3.03;;
59145;SDS011;44928;53.074;6.646;2024-01-07T13:12:26;12.27;;;4.72;;
59145;SDS011;44928;53.074;6.646;2024-01-07T13:14:52;17.80;;;8.13;;
59145;SDS011;44928;53.074;6.646;2024-01-07T13:17:18;10.20;;;3.45;;
59145;SDS011;44928;53.074;6.646;2024-01-07T13:19:44;10.45;;;3.67;;
59145;SDS011;44928;53.074;6.646;2024-01-07T13:22:10;11.73;;;4.32;;
59145;SDS011;44928;53.074;6.646;2024-01-07T13:24:36;8.70;;;3.40;;
59145;SDS011;44928;53.074;6.646;2024-01-07T13:27:02;9.93;;;3.83;;
59145;SDS011;44928;53.074;6.646;2024-01-07T13:29:29;14.52;;;7.20;;
59145;SDS011;44928;53.074;6.646;2024-01-07T13:31:54;9.82;;;4.78;;
59145;SDS011;44928;53.074;6.646;2024-01-07T13:34:20;8.25;;;2.80;;
59145;SDS011;44928;53.074;6.646;2024-01-07T13:36:46;11.40;;;4.40;;
59145;SDS011;44928;53.074;6.646;2024-01-07T13:39:12;8.70;;;3.63;;
59145;SDS011;44928;53.074;6.646;2024-01-07T13:41:41;7.15;;;2.50;;
59145;SDS011;44928;53.074;6.646;2024-01-07T13:44:06;7.95;;;3.00;;
59145;SDS011;44928;53.074;6.646;2024-01-07T13:46:33;6.93;;;2.13;;
59145;SDS011;44928;53.074;6.646;2024-01-07T13:48:59;8.68;;;2.28;;
59145;SDS011;44928;53.074;6.646;2024-01-07T13:51:25;7.85;;;2.65;;
59145;SDS011;44928;53.074;6.646;2024-01-07T13:53:51;10.20;;;3.13;;
59145;SDS011;44928;53.074;6.646;2024-01-07T13:56:17;8.27;;;2.60;;
59145;SDS011;44928;53.074;6.646;2024-01-07T13:58:43;8.43;;;2.65;;
59145;SDS011;44928;53.074;6.646;2024-01-07T14:01:12;8.32;;;2.60;;
59145;SDS011;44928;53.074;6.646;2024-01-07T14:03:39;8.10;;;2.72;;
59145;SDS011;44928;53.074;6.646;2024-01-07T14:06:04;8.05;;;2.60;;
59145;SDS011;44928;53.074;6.646;2024-01-07T14:08:30;8.60;;;2.55;;
59145;SDS011;44928;53.074;6.646;2024-01-07T14:10:56;7.28;;;2.50;;
59145;SDS011;44928;53.074;6.646;2024-01-07T14:13:23;8.23;;;2.90;;
59145;SDS011;44928;53.074;6.646;2024-01-07T14:15:48;8.50;;;2.75;;
59145;SDS011;44928;53.074;6.646;2024-01-07T14:18:14;7.50;;;2.53;;
59145;SDS011;44928;53.074;6.646;2024-01-07T14:20:42;7.90;;;2.88;;
59145;SDS011;44928;53.074;6.646;2024-01-07T14:23:08;8.38;;;2.58;;
59145;SDS011;44928;53.074;6.646;2024-01-07T14:25:35;8.32;;;2.83;;
59145;SDS011;44928;53.074;6.646;2024-01-07T14:28:00;8.10;;;2.80;;
59145;SDS011;44928;53.074;6.646;2024-01-07T14:30:26;9.45;;;2.80;;
59145;SDS011;44928;53.074;6.646;2024-01-07T14:32:53;8.30;;;3.13;;
59145;SDS011;44928;53.074;6.646;2024-01-07T14:35:18;8.48;;;3.28;;
59145;SDS011;44928;53.074;6.646;2024-01-07T14:37:44;7.28;;;2.55;;
59145;SDS011;44928;53.074;6.646;2024-01-07T14:40:10;8.45;;;2.67;;
59145;SDS011;44928;53.074;6.646;2024-01-07T14:42:36;7.88;;;2.75;;
59145;SDS011;44928;53.074;6.646;2024-01-07T14:45:02;7.72;;;2.90;;
59145;SDS011;44928;53.074;6.646;2024-01-07T14:47:29;7.70;;;2.80;;
59145;SDS011;44928;53.074;6.646;2024-01-07T14:49:55;8.30;;;2.78;;
59145;SDS011;44928;53.074;6.646;2024-01-07T14:52:22;9.35;;;3.45;;
59145;SDS011;44928;53.074;6.646;2024-01-07T14:54:47;8.88;;;3.08;;